sensor_id;sensor_type;location;lat;lon;timestamp;temperature;humidity
360;DHT22;168;48.872;9.226;2022-11-13T00:01:10;6.60;91.70
360;DHT22;168;48.872;9.226;2022-11-13T00:03:38;6.60;91.80
360;DHT22;168;48.872;9.226;2022-11-13T00:06:05;6.60;91.70
360;DHT22;168;48.872;9.226;2022-11-13T00:08:33;6.60;91.50
360;DHT22;168;48.872;9.226;2022-11-13T00:11:02;6.70;91.40
360;DHT22;168;48.872;9.226;2022-11-13T00:13:30;6.70;91.40
360;DHT22;168;48.872;9.226;2022-11-13T00:15:58;6.70;91.30
360;DHT22;168;48.872;9.226;2022-11-13T00:18:28;6.70;91.40
360;DHT22;168;48.872;9.226;2022-11-13T00:20:56;6.70;92.20
360;DHT22;168;48.872;9.226;2022-11-13T00:23:23;6.70;92.70
360;DHT22;168;48.872;9.226;2022-11-13T00:25:51;6.70;93.00
360;DHT22;168;48.872;9.226;2022-11-13T00:28:18;6.70;93.10
360;DHT22;168;48.872;9.226;2022-11-13T00:30:46;6.70;92.60
360;DHT22;168;48.872;9.226;2022-11-13T00:33:13;6.70;92.40
360;DHT22;168;48.872;9.226;2022-11-13T00:35:44;6.70;92.40
360;DHT22;168;48.872;9.226;2022-11-13T00:38:11;6.70;92.60
360;DHT22;168;48.872;9.226;2022-11-13T00:40:39;6.70;92.50
360;DHT22;168;48.872;9.226;2022-11-13T00:43:06;6.70;92.30
360;DHT22;168;48.872;9.226;2022-11-13T00:45:34;6.60;91.70
360;DHT22;168;48.872;9.226;2022-11-13T00:48:01;6.60;91.40
360;DHT22;168;48.872;9.226;2022-11-13T00:50:29;6.70;91.40
360;DHT22;168;48.872;9.226;2022-11-13T00:52:57;6.70;91.50
360;DHT22;168;48.872;9.226;2022-11-13T00:55:25;6.70;92.00
360;DHT22;168;48.872;9.226;2022-11-13T00:57:52;6.60;91.60
360;DHT22;168;48.872;9.226;2022-11-13T01:00:20;6.70;92.40
360;DHT22;168;48.872;9.226;2022-11-13T01:02:47;6.60;92.90
360;DHT22;168;48.872;9.226;2022-11-13T01:05:15;6.60;92.80
360;DHT22;168;48.872;9.226;2022-11-13T01:07:43;6.60;93.30
360;DHT22;168;48.872;9.226;2022-11-13T01:10:11;6.50;93.30
360;DHT22;168;48.872;9.226;2022-11-13T01:12:39;6.50;93.40
360;DHT22;168;48.872;9.226;2022-11-13T01:15:08;6.50;93.40
360;DHT22;168;48.872;9.226;2022-11-13T01:17:35;6.50;93.30
360;DHT22;168;48.872;9.226;2022-11-13T01:20:03;6.50;93.00
360;DHT22;168;48.872;9.226;2022-11-13T01:22:32;6.50;92.50
360;DHT22;168;48.872;9.226;2022-11-13T01:25:00;6.50;91.80
360;DHT22;168;48.872;9.226;2022-11-13T01:27:28;6.50;91.80
360;DHT22;168;48.872;9.226;2022-11-13T01:29:56;6.50;92.00
360;DHT22;168;48.872;9.226;2022-11-13T01:32:24;6.50;92.40
360;DHT22;168;48.872;9.226;2022-11-13T01:34:51;6.50;92.40
360;DHT22;168;48.872;9.226;2022-11-13T01:37:18;6.50;92.70
360;DHT22;168;48.872;9.226;2022-11-13T01:39:46;6.50;93.10
360;DHT22;168;48.872;9.226;2022-11-13T01:42:13;6.40;92.60
360;DHT22;168;48.872;9.226;2022-11-13T01:44:47;6.40;91.70
360;DHT22;168;48.872;9.226;2022-11-13T01:47:16;6.40;91.50
360;DHT22;168;48.872;9.226;2022-11-13T01:49:45;6.40;92.10
360;DHT22;168;48.872;9.226;2022-11-13T01:52:15;6.40;92.20
360;DHT22;168;48.872;9.226;2022-11-13T01:54:46;6.40;92.10
360;DHT22;168;48.872;9.226;2022-11-13T01:57:15;6.40;92.30
360;DHT22;168;48.872;9.226;2022-11-13T01:59:47;6.40;92.40
360;DHT22;168;48.872;9.226;2022-11-13T02:02:15;6.40;92.30
360;DHT22;168;48.872;9.226;2022-11-13T02:04:43;6.40;92.30
360;DHT22;168;48.872;9.226;2022-11-13T02:07:12;6.40;92.60
360;DHT22;168;48.872;9.226;2022-11-13T02:09:42;6.40;92.50
360;DHT22;168;48.872;9.226;2022-11-13T02:12:11;6.30;92.10
360;DHT22;168;48.872;9.226;2022-11-13T02:14:41;6.30;92.10
360;DHT22;168;48.872;9.226;2022-11-13T02:17:14;6.30;92.20
360;DHT22;168;48.872;9.226;2022-11-13T02:19:44;6.30;92.20
360;DHT22;168;48.872;9.226;2022-11-13T02:22:18;6.30;92.50
360;DHT22;168;48.872;9.226;2022-11-13T02:24:48;6.20;92.40
360;DHT22;168;48.872;9.226;2022-11-13T02:27:20;6.30;92.50
360;DHT22;168;48.872;9.226;2022-11-13T02:29:49;6.20;92.90
360;DHT22;168;48.872;9.226;2022-11-13T02:32:16;6.20;92.90
360;DHT22;168;48.872;9.226;2022-11-13T02:34:44;6.20;92.80
360;DHT22;168;48.872;9.226;2022-11-13T02:37:11;6.30;92.00
360;DHT22;168;48.872;9.226;2022-11-13T02:39:39;6.20;93.20
360;DHT22;168;48.872;9.226;2022-11-13T02:42:08;6.20;93.30
360;DHT22;168;48.872;9.226;2022-11-13T02:44:36;6.10;93.20
360;DHT22;168;48.872;9.226;2022-11-13T02:47:03;6.00;92.00
360;DHT22;168;48.872;9.226;2022-11-13T02:49:31;6.00;91.10
360;DHT22;168;48.872;9.226;2022-11-13T02:51:58;6.00;90.20
360;DHT22;168;48.872;9.226;2022-11-13T02:54:26;6.00;90.00
360;DHT22;168;48.872;9.226;2022-11-13T02:56:53;6.00;90.60
360;DHT22;168;48.872;9.226;2022-11-13T02:59:22;6.00;91.20
360;DHT22;168;48.872;9.226;2022-11-13T03:01:49;6.00;92.00
360;DHT22;168;48.872;9.226;2022-11-13T03:04:20;6.00;91.40
360;DHT22;168;48.872;9.226;2022-11-13T03:06:47;6.00;91.20
360;DHT22;168;48.872;9.226;2022-11-13T03:09:15;6.00;90.90
360;DHT22;168;48.872;9.226;2022-11-13T03:11:43;6.00;91.10
360;DHT22;168;48.872;9.226;2022-11-13T03:14:10;6.00;92.50
360;DHT22;168;48.872;9.226;2022-11-13T03:16:39;6.10;93.40
360;DHT22;168;48.872;9.226;2022-11-13T03:19:06;5.90;94.80
360;DHT22;168;48.872;9.226;2022-11-13T03:21:34;5.80;94.10
360;DHT22;168;48.872;9.226;2022-11-13T03:24:02;5.70;93.60
360;DHT22;168;48.872;9.226;2022-11-13T03:26:29;5.70;93.40
360;DHT22;168;48.872;9.226;2022-11-13T03:28:56;5.70;94.00
360;DHT22;168;48.872;9.226;2022-11-13T03:31:24;5.60;93.70
360;DHT22;168;48.872;9.226;2022-11-13T03:33:53;5.50;93.30
360;DHT22;168;48.872;9.226;2022-11-13T03:36:20;5.50;93.40
360;DHT22;168;48.872;9.226;2022-11-13T03:38:47;5.40;93.80
360;DHT22;168;48.872;9.226;2022-11-13T03:41:15;5.40;93.50
360;DHT22;168;48.872;9.226;2022-11-13T03:43:42;5.40;93.30
360;DHT22;168;48.872;9.226;2022-11-13T03:46:10;5.30;93.40
360;DHT22;168;48.872;9.226;2022-11-13T03:48:37;5.30;93.60
360;DHT22;168;48.872;9.226;2022-11-13T03:51:06;5.20;93.80
360;DHT22;168;48.872;9.226;2022-11-13T03:53:34;5.20;92.40
360;DHT22;168;48.872;9.226;2022-11-13T03:56:01;5.20;93.70
360;DHT22;168;48.872;9.226;2022-11-13T03:58:28;5.10;92.80
360;DHT22;168;48.872;9.226;2022-11-13T04:00:56;5.10;93.60
360;DHT22;168;48.872;9.226;2022-11-13T04:03:23;5.00;93.40
360;DHT22;168;48.872;9.226;2022-11-13T04:05:51;5.00;93.10
360;DHT22;168;48.872;9.226;2022-11-13T04:08:20;5.00;92.70
360;DHT22;168;48.872;9.226;2022-11-13T04:10:47;4.90;92.10
360;DHT22;168;48.872;9.226;2022-11-13T04:13:15;4.90;91.20
360;DHT22;168;48.872;9.226;2022-11-13T04:15:42;4.90;90.70
360;DHT22;168;48.872;9.226;2022-11-13T04:18:10;5.00;90.60
360;DHT22;168;48.872;9.226;2022-11-13T04:20:37;5.00;90.90
360;DHT22;168;48.872;9.226;2022-11-13T04:23:04;5.00;91.90
360;DHT22;168;48.872;9.226;2022-11-13T04:25:37;5.00;92.30
360;DHT22;168;48.872;9.226;2022-11-13T04:28:05;5.00;92.80
360;DHT22;168;48.872;9.226;2022-11-13T04:30:32;5.00;93.70
360;DHT22;168;48.872;9.226;2022-11-13T04:32:59;4.90;94.50
360;DHT22;168;48.872;9.226;2022-11-13T04:35:27;4.90;94.30
360;DHT22;168;48.872;9.226;2022-11-13T04:37:54;4.80;95.20
360;DHT22;168;48.872;9.226;2022-11-13T04:40:21;4.80;95.00
360;DHT22;168;48.872;9.226;2022-11-13T04:42:55;4.70;94.60
360;DHT22;168;48.872;9.226;2022-11-13T04:45:22;4.70;94.30
360;DHT22;168;48.872;9.226;2022-11-13T04:47:52;4.70;94.30
360;DHT22;168;48.872;9.226;2022-11-13T04:50:20;4.80;94.00
360;DHT22;168;48.872;9.226;2022-11-13T04:52:47;4.70;95.20
360;DHT22;168;48.872;9.226;2022-11-13T04:55:15;4.50;94.40
360;DHT22;168;48.872;9.226;2022-11-13T04:57:42;4.50;93.90
360;DHT22;168;48.872;9.226;2022-11-13T05:00:12;4.40;93.40
360;DHT22;168;48.872;9.226;2022-11-13T05:02:40;4.40;92.40
360;DHT22;168;48.872;9.226;2022-11-13T05:05:08;4.40;91.20
360;DHT22;168;48.872;9.226;2022-11-13T05:07:36;4.40;91.30
360;DHT22;168;48.872;9.226;2022-11-13T05:10:04;4.60;90.70
360;DHT22;168;48.872;9.226;2022-11-13T05:12:31;4.70;92.90
360;DHT22;168;48.872;9.226;2022-11-13T05:14:59;4.50;93.90
360;DHT22;168;48.872;9.226;2022-11-13T05:17:28;4.40;92.90
360;DHT22;168;48.872;9.226;2022-11-13T05:19:55;4.50;91.40
360;DHT22;168;48.872;9.226;2022-11-13T05:22:22;4.50;93.70
360;DHT22;168;48.872;9.226;2022-11-13T05:24:50;4.40;92.70
360;DHT22;168;48.872;9.226;2022-11-13T05:27:17;4.40;93.30
360;DHT22;168;48.872;9.226;2022-11-13T05:29:45;4.30;92.80
360;DHT22;168;48.872;9.226;2022-11-13T05:32:12;4.30;92.60
360;DHT22;168;48.872;9.226;2022-11-13T05:34:41;4.30;91.10
360;DHT22;168;48.872;9.226;2022-11-13T05:37:08;4.40;91.00
360;DHT22;168;48.872;9.226;2022-11-13T05:39:36;4.40;90.80
360;DHT22;168;48.872;9.226;2022-11-13T05:42:03;4.40;90.90
360;DHT22;168;48.872;9.226;2022-11-13T05:44:31;4.50;91.40
360;DHT22;168;48.872;9.226;2022-11-13T05:46:59;4.50;92.40
360;DHT22;168;48.872;9.226;2022-11-13T05:49:26;4.50;92.70
360;DHT22;168;48.872;9.226;2022-11-13T05:51:55;4.50;92.80
360;DHT22;168;48.872;9.226;2022-11-13T05:54:22;4.40;93.50
360;DHT22;168;48.872;9.226;2022-11-13T05:56:50;4.40;93.20
360;DHT22;168;48.872;9.226;2022-11-13T05:59:17;4.40;93.30
360;DHT22;168;48.872;9.226;2022-11-13T06:01:45;4.40;93.50
360;DHT22;168;48.872;9.226;2022-11-13T06:04:12;4.40;93.00
360;DHT22;168;48.872;9.226;2022-11-13T06:06:39;4.30;93.70
360;DHT22;168;48.872;9.226;2022-11-13T06:09:09;4.30;93.30
360;DHT22;168;48.872;9.226;2022-11-13T06:11:38;4.30;92.50
360;DHT22;168;48.872;9.226;2022-11-13T06:14:05;4.30;91.50
360;DHT22;168;48.872;9.226;2022-11-13T06:16:33;4.30;91.10
360;DHT22;168;48.872;9.226;2022-11-13T06:19:03;4.40;90.30
360;DHT22;168;48.872;9.226;2022-11-13T06:21:33;4.50;92.00
360;DHT22;168;48.872;9.226;2022-11-13T06:24:01;4.50;92.90
360;DHT22;168;48.872;9.226;2022-11-13T06:26:32;4.30;93.20
360;DHT22;168;48.872;9.226;2022-11-13T06:29:00;4.30;92.00
360;DHT22;168;48.872;9.226;2022-11-13T06:31:30;4.20;90.70
360;DHT22;168;48.872;9.226;2022-11-13T06:33:59;4.30;89.30
360;DHT22;168;48.872;9.226;2022-11-13T06:36:28;4.30;88.20
360;DHT22;168;48.872;9.226;2022-11-13T06:38:55;4.40;87.60
360;DHT22;168;48.872;9.226;2022-11-13T06:41:25;4.40;87.50
360;DHT22;168;48.872;9.226;2022-11-13T06:43:56;4.50;87.30
360;DHT22;168;48.872;9.226;2022-11-13T06:46:26;4.50;87.20
360;DHT22;168;48.872;9.226;2022-11-13T06:48:54;4.60;87.40
360;DHT22;168;48.872;9.226;2022-11-13T06:51:25;4.70;88.00
360;DHT22;168;48.872;9.226;2022-11-13T06:53:52;4.70;88.20
360;DHT22;168;48.872;9.226;2022-11-13T06:56:20;4.70;88.90
360;DHT22;168;48.872;9.226;2022-11-13T06:58:48;4.70;89.70
360;DHT22;168;48.872;9.226;2022-11-13T07:01:18;4.70;89.80
360;DHT22;168;48.872;9.226;2022-11-13T07:03:46;4.80;89.80
360;DHT22;168;48.872;9.226;2022-11-13T07:06:16;4.80;89.20
360;DHT22;168;48.872;9.226;2022-11-13T07:08:44;4.80;89.10
360;DHT22;168;48.872;9.226;2022-11-13T07:11:14;4.90;89.00
360;DHT22;168;48.872;9.226;2022-11-13T07:13:42;5.00;89.40
360;DHT22;168;48.872;9.226;2022-11-13T07:16:11;5.00;89.40
360;DHT22;168;48.872;9.226;2022-11-13T07:18:40;5.10;92.00
360;DHT22;168;48.872;9.226;2022-11-13T07:21:10;5.10;94.00
360;DHT22;168;48.872;9.226;2022-11-13T07:23:38;5.10;94.30
360;DHT22;168;48.872;9.226;2022-11-13T07:26:08;5.00;94.20
360;DHT22;168;48.872;9.226;2022-11-13T07:28:36;5.00;94.60
360;DHT22;168;48.872;9.226;2022-11-13T07:31:04;5.10;94.30
360;DHT22;168;48.872;9.226;2022-11-13T07:33:32;5.10;94.50
360;DHT22;168;48.872;9.226;2022-11-13T07:36:01;5.10;94.40
360;DHT22;168;48.872;9.226;2022-11-13T07:38:28;5.10;94.00
360;DHT22;168;48.872;9.226;2022-11-13T07:40:57;5.20;95.30
360;DHT22;168;48.872;9.226;2022-11-13T07:43:24;5.20;95.10
360;DHT22;168;48.872;9.226;2022-11-13T07:45:56;5.30;97.40
360;DHT22;168;48.872;9.226;2022-11-13T07:48:24;5.10;97.00
360;DHT22;168;48.872;9.226;2022-11-13T07:50:53;5.00;95.60
360;DHT22;168;48.872;9.226;2022-11-13T07:53:22;4.90;94.50
360;DHT22;168;48.872;9.226;2022-11-13T07:55:49;5.10;94.50
360;DHT22;168;48.872;9.226;2022-11-13T07:58:17;5.10;96.50
360;DHT22;168;48.872;9.226;2022-11-13T08:00:45;5.00;96.20
360;DHT22;168;48.872;9.226;2022-11-13T08:03:14;4.90;96.00
360;DHT22;168;48.872;9.226;2022-11-13T08:05:42;4.80;94.70
360;DHT22;168;48.872;9.226;2022-11-13T08:08:11;4.80;93.40
360;DHT22;168;48.872;9.226;2022-11-13T08:10:41;4.90;92.60
360;DHT22;168;48.872;9.226;2022-11-13T08:13:09;5.00;92.60
360;DHT22;168;48.872;9.226;2022-11-13T08:15:37;5.10;92.70
360;DHT22;168;48.872;9.226;2022-11-13T08:18:05;5.10;93.50
360;DHT22;168;48.872;9.226;2022-11-13T08:20:33;5.20;92.80
360;DHT22;168;48.872;9.226;2022-11-13T08:23:03;5.30;93.00
360;DHT22;168;48.872;9.226;2022-11-13T08:25:32;5.40;92.70
360;DHT22;168;48.872;9.226;2022-11-13T08:28:01;5.40;93.30
360;DHT22;168;48.872;9.226;2022-11-13T08:30:29;5.60;94.80
360;DHT22;168;48.872;9.226;2022-11-13T08:32:56;5.60;96.70
360;DHT22;168;48.872;9.226;2022-11-13T08:35:23;5.60;98.00
360;DHT22;168;48.872;9.226;2022-11-13T08:37:51;5.50;98.40
360;DHT22;168;48.872;9.226;2022-11-13T08:40:18;5.40;97.30
360;DHT22;168;48.872;9.226;2022-11-13T08:42:46;5.40;97.70
360;DHT22;168;48.872;9.226;2022-11-13T08:45:15;5.50;97.70
360;DHT22;168;48.872;9.226;2022-11-13T08:47:42;5.50;98.80
360;DHT22;168;48.872;9.226;2022-11-13T08:50:10;5.60;98.70
360;DHT22;168;48.872;9.226;2022-11-13T08:52:37;5.50;98.30
360;DHT22;168;48.872;9.226;2022-11-13T08:55:05;5.40;98.20
360;DHT22;168;48.872;9.226;2022-11-13T08:57:35;5.30;96.70
360;DHT22;168;48.872;9.226;2022-11-13T09:00:03;5.30;95.00
360;DHT22;168;48.872;9.226;2022-11-13T09:02:34;5.40;93.20
360;DHT22;168;48.872;9.226;2022-11-13T09:05:02;5.60;93.10
360;DHT22;168;48.872;9.226;2022-11-13T09:07:29;5.70;94.20
360;DHT22;168;48.872;9.226;2022-11-13T09:09:57;5.90;94.80
360;DHT22;168;48.872;9.226;2022-11-13T09:12:25;6.00;96.60
360;DHT22;168;48.872;9.226;2022-11-13T09:14:52;6.10;96.90
360;DHT22;168;48.872;9.226;2022-11-13T09:17:20;6.30;98.20
360;DHT22;168;48.872;9.226;2022-11-13T09:19:49;6.40;99.40
360;DHT22;168;48.872;9.226;2022-11-13T09:22:16;6.30;98.90
360;DHT22;168;48.872;9.226;2022-11-13T09:24:44;6.30;99.20
360;DHT22;168;48.872;9.226;2022-11-13T09:27:11;6.30;99.40
360;DHT22;168;48.872;9.226;2022-11-13T09:29:39;6.30;98.60
360;DHT22;168;48.872;9.226;2022-11-13T09:32:06;6.30;97.80
360;DHT22;168;48.872;9.226;2022-11-13T09:34:34;6.40;97.30
360;DHT22;168;48.872;9.226;2022-11-13T09:37:02;6.60;98.20
360;DHT22;168;48.872;9.226;2022-11-13T09:39:30;6.80;99.10
360;DHT22;168;48.872;9.226;2022-11-13T09:42:01;7.00;99.90
360;DHT22;168;48.872;9.226;2022-11-13T09:44:34;7.10;99.90
360;DHT22;168;48.872;9.226;2022-11-13T09:47:10;7.20;99.90
360;DHT22;168;48.872;9.226;2022-11-13T09:49:43;7.10;99.90
360;DHT22;168;48.872;9.226;2022-11-13T09:52:15;7.20;99.90
360;DHT22;168;48.872;9.226;2022-11-13T09:54:46;7.30;99.90
360;DHT22;168;48.872;9.226;2022-11-13T09:57:22;7.40;99.90
360;DHT22;168;48.872;9.226;2022-11-13T09:59:58;7.50;99.90
360;DHT22;168;48.872;9.226;2022-11-13T10:02:36;7.50;99.90
360;DHT22;168;48.872;9.226;2022-11-13T10:05:14;7.50;99.60
360;DHT22;168;48.872;9.226;2022-11-13T10:07:52;7.40;99.70
360;DHT22;168;48.872;9.226;2022-11-13T10:10:47;7.40;99.90
360;DHT22;168;48.872;9.226;2022-11-13T10:13:19;7.30;99.90
360;DHT22;168;48.872;9.226;2022-11-13T10:15:51;7.30;99.90
360;DHT22;168;48.872;9.226;2022-11-13T10:18:21;7.30;99.90
360;DHT22;168;48.872;9.226;2022-11-13T10:20:51;7.30;99.90
360;DHT22;168;48.872;9.226;2022-11-13T10:23:27;7.30;99.90
360;DHT22;168;48.872;9.226;2022-11-13T10:26:03;7.40;99.90
360;DHT22;168;48.872;9.226;2022-11-13T10:28:33;7.50;99.90
360;DHT22;168;48.872;9.226;2022-11-13T10:31:00;7.50;99.90
360;DHT22;168;48.872;9.226;2022-11-13T10:33:28;7.40;99.90
360;DHT22;168;48.872;9.226;2022-11-13T10:36:00;7.30;99.90
360;DHT22;168;48.872;9.226;2022-11-13T10:38:34;7.30;99.90
360;DHT22;168;48.872;9.226;2022-11-13T10:41:11;7.40;99.90
360;DHT22;168;48.872;9.226;2022-11-13T10:43:50;7.40;99.90
360;DHT22;168;48.872;9.226;2022-11-13T10:46:19;7.50;99.90
360;DHT22;168;48.872;9.226;2022-11-13T10:48:47;7.60;99.90
360;DHT22;168;48.872;9.226;2022-11-13T10:51:21;7.60;99.90
360;DHT22;168;48.872;9.226;2022-11-13T10:53:51;7.60;99.90
360;DHT22;168;48.872;9.226;2022-11-13T10:56:23;7.70;99.90
360;DHT22;168;48.872;9.226;2022-11-13T10:59:03;7.80;99.90
360;DHT22;168;48.872;9.226;2022-11-13T11:01:35;7.90;99.70
360;DHT22;168;48.872;9.226;2022-11-13T11:04:03;8.10;99.90
360;DHT22;168;48.872;9.226;2022-11-13T11:06:31;8.30;99.90
360;DHT22;168;48.872;9.226;2022-11-13T11:09:15;8.40;99.80
360;DHT22;168;48.872;9.226;2022-11-13T11:11:50;8.50;99.80
360;DHT22;168;48.872;9.226;2022-11-13T11:14:52;8.60;99.90
360;DHT22;168;48.872;9.226;2022-11-13T11:17:30;8.60;99.70
360;DHT22;168;48.872;9.226;2022-11-13T11:20:07;8.90;99.70
360;DHT22;168;48.872;9.226;2022-11-13T11:22:40;8.90;99.70
360;DHT22;168;48.872;9.226;2022-11-13T11:25:13;9.00;99.70
360;DHT22;168;48.872;9.226;2022-11-13T11:27:45;9.00;99.50
360;DHT22;168;48.872;9.226;2022-11-13T11:30:20;9.10;99.70
360;DHT22;168;48.872;9.226;2022-11-13T11:32:55;9.20;99.20
360;DHT22;168;48.872;9.226;2022-11-13T11:35:30;9.30;99.20
360;DHT22;168;48.872;9.226;2022-11-13T11:38:04;9.50;98.80
360;DHT22;168;48.872;9.226;2022-11-13T11:40:40;9.60;98.80
360;DHT22;168;48.872;9.226;2022-11-13T11:43:15;9.60;98.70
360;DHT22;168;48.872;9.226;2022-11-13T11:45:45;9.70;98.60
360;DHT22;168;48.872;9.226;2022-11-13T11:48:15;9.90;98.20
360;DHT22;168;48.872;9.226;2022-11-13T11:50:46;10.10;97.70
360;DHT22;168;48.872;9.226;2022-11-13T11:53:23;10.10;97.80
360;DHT22;168;48.872;9.226;2022-11-13T11:56:06;10.30;96.60
360;DHT22;168;48.872;9.226;2022-11-13T12:04:56;10.30;95.40
360;DHT22;168;48.872;9.226;2022-11-13T12:07:33;10.30;95.30
360;DHT22;168;48.872;9.226;2022-11-13T12:10:16;10.40;95.10
360;DHT22;168;48.872;9.226;2022-11-13T12:12:59;10.40;94.60
360;DHT22;168;48.872;9.226;2022-11-13T12:15:36;10.40;93.40
360;DHT22;168;48.872;9.226;2022-11-13T12:18:13;10.40;92.10
360;DHT22;168;48.872;9.226;2022-11-13T12:20:47;10.50;93.70
360;DHT22;168;48.872;9.226;2022-11-13T12:23:45;10.40;93.70
360;DHT22;168;48.872;9.226;2022-11-13T12:26:19;10.20;94.70
360;DHT22;168;48.872;9.226;2022-11-13T12:28:56;10.30;94.90
360;DHT22;168;48.872;9.226;2022-11-13T12:31:37;10.30;94.90
360;DHT22;168;48.872;9.226;2022-11-13T12:34:14;10.40;94.60
360;DHT22;168;48.872;9.226;2022-11-13T12:36:46;10.40;94.10
360;DHT22;168;48.872;9.226;2022-11-13T12:39:30;10.40;94.70
360;DHT22;168;48.872;9.226;2022-11-13T12:42:10;10.60;94.10
360;DHT22;168;48.872;9.226;2022-11-13T12:44:46;10.70;93.00
360;DHT22;168;48.872;9.226;2022-11-13T12:47:15;10.80;93.40
360;DHT22;168;48.872;9.226;2022-11-13T12:49:43;10.80;93.20
360;DHT22;168;48.872;9.226;2022-11-13T12:52:18;10.70;93.50
360;DHT22;168;48.872;9.226;2022-11-13T12:54:47;10.70;94.60
360;DHT22;168;48.872;9.226;2022-11-13T12:57:21;10.70;95.00
360;DHT22;168;48.872;9.226;2022-11-13T12:59:51;10.70;94.60
360;DHT22;168;48.872;9.226;2022-11-13T13:02:47;10.70;95.20
360;DHT22;168;48.872;9.226;2022-11-13T13:05:24;10.80;95.10
360;DHT22;168;48.872;9.226;2022-11-13T13:08:15;10.80;95.20
360;DHT22;168;48.872;9.226;2022-11-13T13:10:58;10.90;96.00
360;DHT22;168;48.872;9.226;2022-11-13T13:13:34;11.20;93.80
360;DHT22;168;48.872;9.226;2022-11-13T13:16:05;11.10;94.30
360;DHT22;168;48.872;9.226;2022-11-13T13:18:35;11.10;95.20
360;DHT22;168;48.872;9.226;2022-11-13T13:21:07;11.30;93.90
360;DHT22;168;48.872;9.226;2022-11-13T13:23:36;11.30;94.50
360;DHT22;168;48.872;9.226;2022-11-13T13:26:12;11.30;94.60
360;DHT22;168;48.872;9.226;2022-11-13T13:28:42;11.30;94.80
360;DHT22;168;48.872;9.226;2022-11-13T13:31:22;11.40;94.10
360;DHT22;168;48.872;9.226;2022-11-13T13:33:57;11.50;94.20
360;DHT22;168;48.872;9.226;2022-11-13T13:36:34;11.50;94.10
360;DHT22;168;48.872;9.226;2022-11-13T13:39:15;11.50;94.20
360;DHT22;168;48.872;9.226;2022-11-13T13:42:10;11.40;94.40
360;DHT22;168;48.872;9.226;2022-11-13T13:44:55;11.50;93.90
360;DHT22;168;48.872;9.226;2022-11-13T13:47:29;11.40;94.80
360;DHT22;168;48.872;9.226;2022-11-13T13:49:58;11.40;95.00
360;DHT22;168;48.872;9.226;2022-11-13T13:52:28;11.40;95.40
360;DHT22;168;48.872;9.226;2022-11-13T13:54:57;11.30;95.50
360;DHT22;168;48.872;9.226;2022-11-13T13:57:26;11.40;94.90
360;DHT22;168;48.872;9.226;2022-11-13T13:59:55;11.50;94.90
360;DHT22;168;48.872;9.226;2022-11-13T14:02:23;11.80;93.80
360;DHT22;168;48.872;9.226;2022-11-13T14:04:53;11.90;93.30
360;DHT22;168;48.872;9.226;2022-11-13T14:07:23;11.80;93.40
360;DHT22;168;48.872;9.226;2022-11-13T14:10:06;11.70;93.80
360;DHT22;168;48.872;9.226;2022-11-13T14:12:35;11.60;94.50
360;DHT22;168;48.872;9.226;2022-11-13T14:15:22;11.60;95.00
360;DHT22;168;48.872;9.226;2022-11-13T14:17:50;11.80;94.00
360;DHT22;168;48.872;9.226;2022-11-13T14:20:23;11.70;94.00
360;DHT22;168;48.872;9.226;2022-11-13T14:22:51;11.80;94.20
360;DHT22;168;48.872;9.226;2022-11-13T14:25:21;11.90;94.40
360;DHT22;168;48.872;9.226;2022-11-13T14:27:50;11.80;94.50
360;DHT22;168;48.872;9.226;2022-11-13T14:30:25;11.80;94.40
360;DHT22;168;48.872;9.226;2022-11-13T14:32:53;11.80;94.40
360;DHT22;168;48.872;9.226;2022-11-13T14:35:23;11.70;94.80
360;DHT22;168;48.872;9.226;2022-11-13T14:37:52;11.70;94.80
360;DHT22;168;48.872;9.226;2022-11-13T14:40:22;11.70;94.90
360;DHT22;168;48.872;9.226;2022-11-13T14:42:53;11.70;95.00
360;DHT22;168;48.872;9.226;2022-11-13T14:45:24;11.70;94.90
360;DHT22;168;48.872;9.226;2022-11-13T14:47:57;11.60;95.30
360;DHT22;168;48.872;9.226;2022-11-13T14:50:28;11.60;95.40
360;DHT22;168;48.872;9.226;2022-11-13T14:52:58;11.50;95.60
360;DHT22;168;48.872;9.226;2022-11-13T14:55:27;11.50;95.80
360;DHT22;168;48.872;9.226;2022-11-13T14:58:00;11.60;95.60
360;DHT22;168;48.872;9.226;2022-11-13T15:00:30;11.60;95.50
360;DHT22;168;48.872;9.226;2022-11-13T15:02:58;11.50;95.80
360;DHT22;168;48.872;9.226;2022-11-13T15:05:27;11.40;96.20
360;DHT22;168;48.872;9.226;2022-11-13T15:07:56;11.50;95.80
360;DHT22;168;48.872;9.226;2022-11-13T15:10:25;11.50;95.80
360;DHT22;168;48.872;9.226;2022-11-13T15:12:53;11.40;96.00
360;DHT22;168;48.872;9.226;2022-11-13T15:15:22;11.40;96.40
360;DHT22;168;48.872;9.226;2022-11-13T15:17:51;11.30;96.60
360;DHT22;168;48.872;9.226;2022-11-13T15:20:23;11.30;96.80
360;DHT22;168;48.872;9.226;2022-11-13T15:22:53;11.30;96.60
360;DHT22;168;48.872;9.226;2022-11-13T15:25:22;11.30;96.40
360;DHT22;168;48.872;9.226;2022-11-13T15:27:50;11.30;96.30
360;DHT22;168;48.872;9.226;2022-11-13T15:30:18;11.20;96.90
360;DHT22;168;48.872;9.226;2022-11-13T15:32:45;11.10;97.30
360;DHT22;168;48.872;9.226;2022-11-13T15:35:16;11.10;97.70
360;DHT22;168;48.872;9.226;2022-11-13T15:37:45;11.00;97.90
360;DHT22;168;48.872;9.226;2022-11-13T15:40:14;11.00;97.80
360;DHT22;168;48.872;9.226;2022-11-13T15:42:43;10.90;97.90
360;DHT22;168;48.872;9.226;2022-11-13T15:45:13;10.80;98.00
360;DHT22;168;48.872;9.226;2022-11-13T15:47:41;10.70;97.90
360;DHT22;168;48.872;9.226;2022-11-13T15:50:10;10.60;97.90
360;DHT22;168;48.872;9.226;2022-11-13T15:52:41;10.60;98.20
360;DHT22;168;48.872;9.226;2022-11-13T15:55:21;10.60;98.30
360;DHT22;168;48.872;9.226;2022-11-13T15:57:50;10.50;98.50
360;DHT22;168;48.872;9.226;2022-11-13T16:00:19;10.40;98.60
360;DHT22;168;48.872;9.226;2022-11-13T16:02:50;10.40;98.80
360;DHT22;168;48.872;9.226;2022-11-13T16:05:20;10.60;98.80
360;DHT22;168;48.872;9.226;2022-11-13T16:07:48;10.50;98.80
360;DHT22;168;48.872;9.226;2022-11-13T16:10:18;10.40;98.90
360;DHT22;168;48.872;9.226;2022-11-13T16:12:45;10.30;99.00
360;DHT22;168;48.872;9.226;2022-11-13T16:15:13;10.20;99.40
360;DHT22;168;48.872;9.226;2022-11-13T16:17:44;9.90;99.40
360;DHT22;168;48.872;9.226;2022-11-13T16:20:14;9.80;99.50
360;DHT22;168;48.872;9.226;2022-11-13T16:22:42;9.70;99.60
360;DHT22;168;48.872;9.226;2022-11-13T16:25:12;9.60;99.50
360;DHT22;168;48.872;9.226;2022-11-13T16:27:41;9.60;99.50
360;DHT22;168;48.872;9.226;2022-11-13T16:30:13;9.60;99.50
360;DHT22;168;48.872;9.226;2022-11-13T16:32:41;9.50;99.40
360;DHT22;168;48.872;9.226;2022-11-13T16:35:12;9.50;99.40
360;DHT22;168;48.872;9.226;2022-11-13T16:37:41;9.50;99.40
360;DHT22;168;48.872;9.226;2022-11-13T16:40:18;9.50;99.40
360;DHT22;168;48.872;9.226;2022-11-13T16:42:48;9.50;99.40
360;DHT22;168;48.872;9.226;2022-11-13T16:45:17;9.50;99.40
360;DHT22;168;48.872;9.226;2022-11-13T16:47:45;9.50;99.40
360;DHT22;168;48.872;9.226;2022-11-13T16:50:18;9.50;99.30
360;DHT22;168;48.872;9.226;2022-11-13T16:52:49;9.40;99.10
360;DHT22;168;48.872;9.226;2022-11-13T16:55:19;9.40;99.30
360;DHT22;168;48.872;9.226;2022-11-13T16:57:48;9.30;99.20
360;DHT22;168;48.872;9.226;2022-11-13T17:00:21;9.30;99.10
360;DHT22;168;48.872;9.226;2022-11-13T17:02:51;9.20;99.20
360;DHT22;168;48.872;9.226;2022-11-13T17:05:22;9.10;99.00
360;DHT22;168;48.872;9.226;2022-11-13T17:07:56;9.10;99.10
360;DHT22;168;48.872;9.226;2022-11-13T17:10:24;9.10;99.10
360;DHT22;168;48.872;9.226;2022-11-13T17:12:54;9.10;99.10